createdAt,value
2023-05-01T00:01:11.913Z,31.40
2023-05-01T00:03:39.108Z,28.70
2023-05-01T00:06:07.542Z,36.10
2023-05-01T00:08:34.843Z,40.80
2023-05-01T00:11:03.224Z,39.60
2023-05-01T00:13:31.850Z,40.30
2023-05-01T00:15:59.039Z,36.10
2023-05-01T00:18:26.224Z,40.70
2023-05-01T00:20:53.157Z,40.00
2023-05-01T00:23:20.584Z,39.10
2023-05-01T00:25:47.481Z,43.10
2023-05-01T00:28:15.143Z,38.70
2023-05-01T00:30:42.101Z,33.70
2023-05-01T00:33:12.202Z,30.40
2023-05-01T00:35:39.091Z,31.60
2023-05-01T00:38:06.830Z,22.90
2023-05-01T00:40:42.268Z,24.10
2023-05-01T00:43:10.723Z,23.20
2023-05-01T00:45:38.864Z,28.90
2023-05-01T00:48:05.923Z,28.80
2023-05-01T00:50:32.933Z,27.00
2023-05-01T00:53:00.170Z,27.60
2023-05-01T00:55:28.370Z,29.00
2023-05-01T00:57:55.738Z,24.70
2023-05-01T01:00:24.897Z,30.80
2023-05-01T01:02:52.269Z,26.10
2023-05-01T01:05:19.316Z,26.90
2023-05-01T01:08:19.979Z,23.40
2023-05-01T01:10:51.042Z,26.10
2023-05-01T01:13:27.912Z,22.50
2023-05-01T01:16:06.300Z,25.20
2023-05-01T01:18:37.851Z,22.70
2023-05-01T01:21:29.461Z,22.10
2023-05-01T01:24:33.606Z,22.20
2023-05-01T01:27:45.812Z,22.70
2023-05-01T01:30:30.945Z,24.90
2023-05-01T01:33:01.050Z,17.70
2023-05-01T01:35:29.354Z,19.70
2023-05-01T01:38:05.684Z,20.10
2023-05-01T01:40:50.167Z,20.00
2023-05-01T01:43:17.232Z,18.70
2023-05-01T01:45:47.012Z,20.50
2023-05-01T01:48:17.895Z,17.00
2023-05-01T01:50:45.332Z,19.20
2023-05-01T01:53:14.792Z,17.40
2023-05-01T01:55:42.314Z,14.50
2023-05-01T01:58:10.108Z,18.90
2023-05-01T02:00:37.613Z,18.50
2023-05-01T02:03:06.163Z,23.30
2023-05-01T02:05:35.222Z,22.90
2023-05-01T02:08:02.290Z,22.20
2023-05-01T02:10:32.911Z,22.90
2023-05-01T02:13:00.332Z,21.40
2023-05-01T02:15:27.612Z,22.00
2023-05-01T02:17:54.711Z,25.50
2023-05-01T02:20:21.861Z,19.50
2023-05-01T02:22:50.217Z,21.70
2023-05-01T02:25:17.437Z,22.80
2023-05-01T02:27:50.167Z,20.40
2023-05-01T02:30:18.221Z,22.40
2023-05-01T02:32:45.289Z,21.00
2023-05-01T02:35:12.228Z,21.60
2023-05-01T02:37:39.158Z,22.20
2023-05-01T02:40:07.159Z,20.60
2023-05-01T02:42:35.014Z,18.60
2023-05-01T02:45:11.894Z,18.60
2023-05-01T02:47:39.302Z,17.50
2023-05-01T02:50:07.577Z,20.70
2023-05-01T02:52:34.683Z,16.00
2023-05-01T02:55:21.830Z,13.50
2023-05-01T02:57:50.811Z,11.80
2023-05-01T03:00:18.063Z,11.60
2023-05-01T03:02:45.379Z,9.30
2023-05-01T03:05:12.459Z,10.90
2023-05-01T03:07:39.428Z,9.80
2023-05-01T03:10:09.697Z,8.70
2023-05-01T03:12:36.879Z,9.10
2023-05-01T03:15:04.183Z,8.70
2023-05-01T03:17:31.930Z,9.90
2023-05-01T03:19:58.844Z,9.00
2023-05-01T03:22:29.067Z,7.30
2023-05-01T03:24:56.037Z,7.30
2023-05-01T03:27:23.147Z,7.20
2023-05-01T03:29:50.047Z,7.20
2023-05-01T03:32:18.020Z,8.10
2023-05-01T03:34:45.839Z,6.70
2023-05-01T03:37:13.047Z,6.10
2023-05-01T03:39:40.334Z,5.40
2023-05-01T03:42:25.735Z,5.50
2023-05-01T03:44:56.706Z,6.20
2023-05-01T03:47:24.027Z,5.90
2023-05-01T03:49:50.894Z,6.00
2023-05-01T03:52:17.735Z,6.30
2023-05-01T03:54:45.115Z,7.10
2023-05-01T03:57:22.817Z,6.80
2023-05-01T03:59:50.177Z,5.60
2023-05-01T04:02:17.533Z,7.80
2023-05-01T04:04:45.433Z,6.60
2023-05-01T04:07:15.994Z,6.50
2023-05-01T04:09:43.334Z,6.00
2023-05-01T04:12:13.050Z,5.80
2023-05-01T04:14:40.113Z,5.40
2023-05-01T04:17:09.859Z,6.00
2023-05-01T04:19:37.770Z,5.30
2023-05-01T04:22:05.142Z,6.50
2023-05-01T04:24:35.467Z,7.30
2023-05-01T04:27:04.306Z,7.70
2023-05-01T04:29:31.920Z,4.70
2023-05-01T04:31:59.424Z,6.70
2023-05-01T04:34:29.023Z,5.90
2023-05-01T04:36:56.778Z,8.10
2023-05-01T04:39:23.747Z,4.60
2023-05-01T04:41:50.842Z,6.00
2023-05-01T04:44:18.008Z,6.40
2023-05-01T04:46:45.616Z,6.90
2023-05-01T04:49:12.555Z,4.20
2023-05-01T04:51:39.451Z,4.70
2023-05-01T04:54:08.549Z,4.00
2023-05-01T04:56:37.735Z,6.00
2023-05-01T04:59:04.727Z,6.30
2023-05-01T05:01:33.184Z,5.30
2023-05-01T05:04:00.295Z,5.60
2023-05-01T05:06:27.619Z,5.30
2023-05-01T05:08:55.265Z,6.40
2023-05-01T05:11:22.143Z,5.90
2023-05-01T05:13:52.156Z,5.20
2023-05-01T05:16:20.092Z,5.90
2023-05-01T05:18:46.986Z,5.40
2023-05-01T05:21:16.263Z,4.80
2023-05-01T05:23:47.717Z,5.50
2023-05-01T05:26:14.569Z,6.30
2023-05-01T05:28:42.110Z,5.90
2023-05-01T05:31:10.092Z,3.30
2023-05-01T05:33:38.291Z,5.00
2023-05-01T05:36:06.141Z,4.30
2023-05-01T05:38:40.161Z,5.90
2023-05-01T05:41:08.106Z,3.40
2023-05-01T05:43:36.869Z,6.30
2023-05-01T05:46:05.608Z,5.00
2023-05-01T05:48:35.597Z,5.30
2023-05-01T05:51:03.996Z,5.30
2023-05-01T05:53:30.956Z,4.60
2023-05-01T05:55:58.368Z,5.70
2023-05-01T05:58:25.403Z,4.90
2023-05-01T06:00:55.527Z,3.90
2023-05-01T06:03:24.310Z,5.80
2023-05-01T06:08:23.970Z,4.00
2023-05-01T06:10:52.040Z,3.30
2023-05-01T06:13:19.604Z,4.80
2023-05-01T06:15:48.617Z,4.60
2023-05-01T06:18:16.592Z,3.00
2023-05-01T06:20:43.860Z,4.00
2023-05-01T06:23:14.155Z,3.80
2023-05-01T06:25:54.533Z,3.20
2023-05-01T06:28:24.242Z,3.40
2023-05-01T06:30:51.315Z,5.30
2023-05-01T06:33:21.559Z,3.90
2023-05-01T06:35:59.489Z,4.40
2023-05-01T06:38:27.109Z,3.70
2023-05-01T06:40:55.425Z,2.80
2023-05-01T06:43:22.316Z,3.40
2023-05-01T06:45:49.610Z,3.70
2023-05-01T06:48:16.674Z,3.20
2023-05-01T06:50:43.589Z,5.20
2023-05-01T06:53:10.832Z,2.90
2023-05-01T06:55:37.878Z,4.70
2023-05-01T06:58:12.727Z,2.50
2023-05-01T07:00:50.606Z,3.50
2023-05-01T07:03:17.846Z,2.30
2023-05-01T07:05:44.880Z,3.00
2023-05-01T07:08:12.239Z,6.30
2023-05-01T07:10:41.800Z,3.20
2023-05-01T07:13:09.346Z,2.30
2023-05-01T07:15:37.024Z,2.80
2023-05-01T07:18:05.602Z,2.80
2023-05-01T07:20:33.986Z,3.80
2023-05-01T07:23:01.459Z,2.60
2023-05-01T07:25:28.609Z,2.30
2023-05-01T07:27:55.962Z,3.10
2023-05-01T07:30:23.538Z,1.20
2023-05-01T07:32:50.727Z,1.70
2023-05-01T07:35:17.629Z,2.40
2023-05-01T07:37:44.631Z,1.60
2023-05-01T07:40:11.537Z,2.70
2023-05-01T07:42:38.946Z,3.20
2023-05-01T07:45:07.038Z,2.30
2023-05-01T07:47:34.226Z,1.70
2023-05-01T07:50:04.387Z,6.20
2023-05-01T07:52:32.502Z,1.80
2023-05-01T07:54:59.274Z,1.40
2023-05-01T07:57:26.286Z,2.40
2023-05-01T07:59:56.423Z,2.50
2023-05-01T08:02:23.865Z,2.30
2023-05-01T08:04:51.131Z,1.30
2023-05-01T08:07:19.175Z,2.60
2023-05-01T08:09:46.186Z,2.70
2023-05-01T08:12:13.262Z,4.10
2023-05-01T08:14:40.235Z,2.40
2023-05-01T08:17:07.293Z,2.50
2023-05-01T08:19:35.341Z,2.90
2023-05-01T08:22:02.145Z,2.90
2023-05-01T08:24:29.379Z,1.80
2023-05-01T08:26:56.417Z,3.80
2023-05-01T08:29:23.454Z,2.60
2023-05-01T08:31:51.674Z,2.80
2023-05-01T08:34:18.705Z,3.20
2023-05-01T08:36:45.571Z,3.60
2023-05-01T08:39:12.833Z,1.80
2023-05-01T08:41:46.832Z,2.60
2023-05-01T08:44:15.903Z,3.50
2023-05-01T08:47:06.272Z,1.90
2023-05-01T08:49:34.365Z,1.70
2023-05-01T08:52:02.000Z,2.20
2023-05-01T08:54:30.610Z,3.20
2023-05-01T08:57:02.047Z,2.30
2023-05-01T08:59:33.659Z,2.30
2023-05-01T09:02:02.186Z,1.70
2023-05-01T09:04:31.852Z,2.50
2023-05-01T09:07:00.478Z,2.40
2023-05-01T09:09:30.670Z,1.10
2023-05-01T09:12:01.148Z,2.40
2023-05-01T09:14:29.275Z,2.10
2023-05-01T09:16:56.585Z,3.30
2023-05-01T09:19:24.150Z,1.70
2023-05-01T09:21:50.966Z,2.30
2023-05-01T09:24:18.589Z,2.20
2023-05-01T09:26:45.496Z,1.50
2023-05-01T09:29:14.572Z,2.70
2023-05-01T09:31:41.358Z,1.40
2023-05-01T09:34:10.528Z,4.70
2023-05-01T09:36:40.357Z,3.90
2023-05-01T09:39:07.244Z,1.20
2023-05-01T09:41:34.421Z,3.40
2023-05-01T09:44:01.710Z,2.40
2023-05-01T09:46:29.048Z,2.60
2023-05-01T09:49:00.487Z,1.20
2023-05-01T09:51:28.987Z,1.90
2023-05-01T09:53:59.968Z,3.80
2023-05-01T09:56:31.970Z,3.10
2023-05-01T09:59:15.887Z,3.70
2023-05-01T10:01:44.552Z,1.20
2023-05-01T10:04:12.014Z,0.70
2023-05-01T10:06:39.168Z,3.40
2023-05-01T10:09:07.491Z,2.60
2023-05-01T10:11:51.773Z,1.70
2023-05-01T10:14:19.878Z,1.60
2023-05-01T10:16:46.749Z,2.40
2023-05-01T10:19:14.679Z,1.40
2023-05-01T10:21:42.276Z,1.70
2023-05-01T10:24:09.906Z,2.10
2023-05-01T10:26:37.532Z,2.40
2023-05-01T10:29:04.785Z,3.40
2023-05-01T10:31:33.283Z,2.50
2023-05-01T10:34:01.573Z,3.70
2023-05-01T10:36:33.462Z,1.80
2023-05-01T10:39:00.304Z,1.30
2023-05-01T10:41:58.275Z,3.00
2023-05-01T10:44:27.754Z,3.10
2023-05-01T10:46:55.205Z,2.10
2023-05-01T10:49:22.377Z,1.30
2023-05-01T10:52:04.309Z,4.10
2023-05-01T10:54:34.216Z,2.10
2023-05-01T10:57:02.915Z,1.30
2023-05-01T10:59:58.414Z,3.10
2023-05-01T11:02:26.999Z,1.80
2023-05-01T11:04:56.042Z,2.00
2023-05-01T11:07:24.488Z,1.30
2023-05-01T11:09:57.176Z,1.80
2023-05-01T11:12:46.111Z,2.30
2023-05-01T11:15:30.042Z,1.70
2023-05-01T11:17:57.314Z,1.70
2023-05-01T11:20:24.122Z,2.50
2023-05-01T11:22:52.188Z,3.30
2023-05-01T11:25:22.427Z,1.80
2023-05-01T11:27:52.846Z,2.00
2023-05-01T11:30:21.742Z,2.60
2023-05-01T11:32:55.661Z,3.60
2023-05-01T11:35:24.065Z,3.30
2023-05-01T11:37:51.267Z,1.50
2023-05-01T11:40:20.421Z,2.70
2023-05-01T11:42:48.489Z,2.80
2023-05-01T11:45:15.371Z,4.30
2023-05-01T11:47:43.618Z,1.20
2023-05-01T11:50:11.393Z,1.40
2023-05-01T11:52:50.546Z,2.20
2023-05-01T11:55:17.391Z,4.60
2023-05-01T11:57:51.928Z,2.00
2023-05-01T12:00:31.707Z,1.50
2023-05-01T12:02:59.908Z,2.90
2023-05-01T12:05:29.618Z,0.50
2023-05-01T12:08:18.173Z,0.70
2023-05-01T12:10:48.502Z,2.70
2023-05-01T12:13:16.172Z,3.30
2023-05-01T12:15:47.133Z,2.10
2023-05-01T12:18:15.072Z,1.00
2023-05-01T12:20:46.957Z,1.60
2023-05-01T12:23:15.729Z,3.30
2023-05-01T12:25:43.010Z,2.30
2023-05-01T12:28:12.729Z,2.40
2023-05-01T12:30:40.266Z,1.80
2023-05-01T12:33:18.511Z,1.00
2023-05-01T12:35:49.630Z,1.50
2023-05-01T12:38:25.869Z,3.70
2023-05-01T12:40:57.232Z,4.20
2023-05-01T12:43:36.925Z,4.40
2023-05-01T12:46:04.981Z,3.30
2023-05-01T12:48:33.709Z,2.20
2023-05-01T12:51:00.820Z,3.30
2023-05-01T12:53:28.421Z,3.20
2023-05-01T12:56:08.126Z,2.70
2023-05-01T12:58:37.094Z,2.40
2023-05-01T13:01:04.614Z,1.60
2023-05-01T13:03:33.102Z,2.10
2023-05-01T13:06:01.880Z,1.80
2023-05-01T13:08:30.311Z,1.70
2023-05-01T13:11:03.410Z,1.80
2023-05-01T13:13:34.061Z,2.90
2023-05-01T13:16:12.037Z,2.90
2023-05-01T13:18:53.308Z,3.60
2023-05-01T13:21:21.547Z,3.30
2023-05-01T13:24:06.840Z,3.20
2023-05-01T13:26:35.345Z,2.00
2023-05-01T13:29:05.245Z,3.00
2023-05-01T13:31:32.454Z,3.20
2023-05-01T13:34:01.663Z,2.00
2023-05-01T13:36:36.715Z,1.40
2023-05-01T13:39:04.145Z,3.30
2023-05-01T13:41:35.129Z,3.00
2023-05-01T13:44:02.138Z,2.00
2023-05-01T13:46:29.276Z,2.70
2023-05-01T13:48:58.598Z,2.90
2023-05-01T13:51:26.671Z,3.70
2023-05-01T13:53:55.100Z,2.60
2023-05-01T13:56:23.983Z,2.10
2023-05-01T13:58:51.397Z,3.20
2023-05-01T14:01:23.004Z,1.90
2023-05-01T14:03:50.028Z,1.70
2023-05-01T14:06:25.810Z,6.50
2023-05-01T14:08:53.905Z,1.80
2023-05-01T14:11:23.223Z,1.80
2023-05-01T14:13:50.742Z,1.80
2023-05-01T14:16:26.506Z,2.00
2023-05-01T14:18:57.034Z,3.10
2023-05-01T14:21:27.178Z,3.40
2023-05-01T14:23:56.803Z,2.50
2023-05-01T14:26:24.446Z,1.70
2023-05-01T14:28:51.528Z,1.60
2023-05-01T14:31:35.323Z,2.20
2023-05-01T14:40:37.034Z,2.50
2023-05-01T14:43:04.110Z,2.20
2023-05-01T14:49:52.060Z,3.00
2023-05-01T14:53:00.314Z,2.00
2023-05-01T14:55:34.372Z,3.10
2023-05-01T14:58:07.389Z,4.00
2023-05-01T15:00:34.516Z,4.40
2023-05-01T15:03:04.909Z,3.80
2023-05-01T15:05:38.142Z,2.30
2023-05-01T15:08:06.456Z,4.30
2023-05-01T15:10:33.469Z,3.30
2023-05-01T15:13:00.505Z,2.30
2023-05-01T15:15:29.366Z,2.50
2023-05-01T15:17:56.238Z,3.00
2023-05-01T15:20:23.144Z,4.70
2023-05-01T15:22:49.983Z,2.00
2023-05-01T15:25:17.214Z,2.10
2023-05-01T15:27:45.854Z,2.30
2023-05-01T15:30:14.318Z,2.10
2023-05-01T15:32:41.548Z,2.40
2023-05-01T15:35:08.709Z,2.40
2023-05-01T15:37:37.047Z,2.60
2023-05-01T15:40:04.964Z,5.20
2023-05-01T15:42:31.883Z,2.10
2023-05-01T15:44:59.669Z,2.40
2023-05-01T15:47:28.770Z,2.20
2023-05-01T15:49:57.522Z,2.70
2023-05-01T15:52:25.227Z,2.10
2023-05-01T15:54:52.338Z,1.90
2023-05-01T15:57:19.156Z,3.20
2023-05-01T15:59:50.694Z,2.70
2023-05-01T16:02:19.096Z,2.70
2023-05-01T16:04:47.374Z,4.40
2023-05-01T16:07:16.393Z,1.80
2023-05-01T16:09:44.795Z,2.00
2023-05-01T16:12:11.778Z,1.60
2023-05-01T16:14:40.507Z,2.30
2023-05-01T16:17:07.763Z,2.10
2023-05-01T16:19:38.558Z,2.50
2023-05-01T16:22:06.465Z,3.90
2023-05-01T16:24:34.118Z,2.50
2023-05-01T16:27:01.192Z,2.50
2023-05-01T16:29:28.190Z,2.70
2023-05-01T16:31:55.171Z,3.00
2023-05-01T16:34:23.882Z,2.50
2023-05-01T16:36:51.197Z,3.80
2023-05-01T16:39:21.406Z,2.40
2023-05-01T16:41:52.992Z,4.40
2023-05-01T16:44:21.385Z,2.90
2023-05-01T16:46:55.763Z,2.70
2023-05-01T16:49:23.449Z,3.90
2023-05-01T16:51:50.365Z,2.00
2023-05-01T16:54:17.298Z,4.90
2023-05-01T16:56:44.141Z,3.00
2023-05-01T16:59:10.987Z,3.40
2023-05-01T17:01:37.942Z,7.90
2023-05-01T17:04:05.731Z,3.50
2023-05-01T17:06:33.481Z,2.90
2023-05-01T17:09:00.566Z,5.50
2023-05-01T17:11:30.429Z,4.30
2023-05-01T17:14:03.234Z,5.30
2023-05-01T17:16:31.951Z,6.60
2023-05-01T17:18:58.922Z,8.70
2023-05-01T17:21:28.376Z,7.50
2023-05-01T17:23:55.582Z,7.00
2023-05-01T17:26:22.496Z,6.60
2023-05-01T17:28:50.156Z,5.30
2023-05-01T17:31:19.938Z,6.40
2023-05-01T17:36:15.817Z,8.10
2023-05-01T17:38:45.350Z,6.40
2023-05-01T17:41:12.125Z,6.50
2023-05-01T17:43:39.126Z,7.30
2023-05-01T17:46:06.481Z,8.80
2023-05-01T17:48:33.988Z,8.60
2023-05-01T17:51:01.084Z,10.20
2023-05-01T17:53:36.971Z,11.80
2023-05-01T17:56:03.890Z,10.90
2023-05-01T17:58:34.602Z,9.80
2023-05-01T18:01:12.343Z,8.50
2023-05-01T18:04:27.970Z,8.50
2023-05-01T18:06:57.554Z,5.30
2023-05-01T18:09:29.135Z,4.80
2023-05-01T18:11:57.173Z,5.70
2023-05-01T18:14:25.607Z,4.90
2023-05-01T18:22:54.272Z,5.60
2023-05-01T18:25:25.794Z,7.90
2023-05-01T18:27:59.077Z,6.80
2023-05-01T18:30:30.238Z,8.50
2023-05-01T18:32:58.123Z,9.80
2023-05-01T18:35:25.110Z,10.30
2023-05-01T18:37:53.407Z,13.50
2023-05-01T18:40:25.017Z,12.20
2023-05-01T18:45:55.198Z,14.60
2023-05-01T18:48:22.735Z,11.90
2023-05-01T18:51:01.205Z,12.00
2023-05-01T18:53:34.740Z,13.50
2023-05-01T18:56:01.675Z,10.40
2023-05-01T18:58:29.749Z,9.10
2023-05-01T19:00:57.501Z,8.40
2023-05-01T19:03:27.138Z,7.50
2023-05-01T19:05:54.083Z,8.00
2023-05-01T19:08:20.936Z,8.60
2023-05-01T19:10:48.049Z,8.50
2023-05-01T19:13:16.709Z,7.30
2023-05-01T19:15:44.011Z,10.00
2023-05-01T19:18:14.497Z,8.90
2023-05-01T19:20:42.758Z,8.00
2023-05-01T19:25:41.330Z,9.60
2023-05-01T19:28:08.446Z,8.70
2023-05-01T19:30:38.482Z,13.60
2023-05-01T19:33:07.757Z,10.20
2023-05-01T19:35:35.127Z,10.00
2023-05-01T19:38:02.443Z,11.90
2023-05-01T19:40:29.886Z,9.10
2023-05-01T19:42:57.028Z,10.10
2023-05-01T19:45:27.238Z,10.20
2023-05-01T19:47:54.594Z,9.80
2023-05-01T19:50:25.384Z,10.90
2023-05-01T19:53:06.564Z,10.50
2023-05-01T19:55:33.974Z,10.10
2023-05-01T19:58:03.652Z,10.70
2023-05-01T20:00:37.381Z,9.80
2023-05-01T20:03:05.153Z,10.10
2023-05-01T20:05:32.523Z,9.40
2023-05-01T20:08:01.496Z,8.70
2023-05-01T20:13:56.365Z,7.40
2023-05-01T20:16:23.361Z,9.70
2023-05-01T20:18:51.557Z,10.80
2023-05-01T20:21:19.051Z,8.20
2023-05-01T20:23:45.907Z,10.60
2023-05-01T20:26:12.873Z,10.10
2023-05-01T20:28:39.716Z,10.60
2023-05-01T20:31:06.640Z,11.70
2023-05-01T20:33:34.038Z,10.00
2023-05-01T20:36:03.756Z,11.60
2023-05-01T20:38:31.165Z,10.30
2023-05-01T20:40:57.967Z,11.70
2023-05-01T20:43:26.464Z,11.10
2023-05-01T20:45:53.321Z,12.50
2023-05-01T20:48:20.514Z,11.20
2023-05-01T20:50:49.374Z,12.10
2023-05-01T20:53:16.421Z,9.90
2023-05-01T20:55:43.268Z,10.80
2023-05-01T20:58:13.378Z,9.90
2023-05-01T21:00:40.340Z,7.40
2023-05-01T21:03:08.768Z,10.20
2023-05-01T21:05:35.649Z,10.80
2023-05-01T21:08:02.712Z,10.60
2023-05-01T21:10:29.713Z,13.20
2023-05-01T21:12:57.304Z,11.60
2023-05-01T21:15:24.339Z,10.10
2023-05-01T21:17:51.476Z,11.20
2023-05-01T21:20:33.077Z,10.70
2023-05-01T21:23:04.059Z,12.50
2023-05-01T21:25:31.284Z,9.40
2023-05-01T21:28:01.440Z,12.10
2023-05-01T21:30:32.561Z,13.10
2023-05-01T21:33:05.120Z,10.10
2023-05-01T21:35:32.172Z,10.10
2023-05-01T21:38:01.378Z,9.90
2023-05-01T21:40:28.462Z,10.00
2023-05-01T21:42:58.234Z,9.50
2023-05-01T21:45:25.214Z,9.70
2023-05-01T21:47:52.749Z,11.30
2023-05-01T21:50:20.379Z,11.40
2023-05-01T21:52:48.535Z,9.90
2023-05-01T21:55:16.681Z,9.80
2023-05-01T21:57:44.030Z,9.80
2023-05-01T22:00:11.914Z,11.30
2023-05-01T22:02:44.158Z,10.00
2023-05-01T22:05:15.511Z,15.30
2023-05-01T22:07:44.613Z,12.90
2023-05-01T22:10:14.805Z,12.20
2023-05-01T22:12:42.389Z,12.00
2023-05-01T22:15:11.091Z,13.00
2023-05-01T22:17:39.776Z,12.10
2023-05-01T22:20:09.675Z,13.00
2023-05-01T22:22:38.575Z,13.50
2023-05-01T22:25:06.133Z,11.10
2023-05-01T22:27:34.099Z,12.90
2023-05-01T22:30:01.632Z,13.80
2023-05-01T22:32:29.358Z,13.40
2023-05-01T22:34:56.300Z,14.60
2023-05-01T22:37:24.980Z,13.00
2023-05-01T22:39:52.642Z,15.00
2023-05-01T22:42:19.611Z,15.20
2023-05-01T22:44:46.580Z,14.90
2023-05-01T22:47:13.576Z,13.80
2023-05-01T22:49:41.067Z,13.90
2023-05-01T22:52:08.009Z,17.40
2023-05-01T22:54:35.036Z,13.20
2023-05-01T22:57:02.598Z,12.80
2023-05-01T22:59:29.954Z,16.50
2023-05-01T23:01:56.908Z,16.10
2023-05-01T23:04:23.744Z,15.40
2023-05-01T23:06:51.609Z,16.10
2023-05-01T23:09:18.561Z,16.90
2023-05-01T23:11:46.006Z,16.50
2023-05-01T23:14:16.404Z,17.00
2023-05-01T23:16:44.133Z,21.30
2023-05-01T23:19:30.211Z,17.50
2023-05-01T23:22:10.672Z,18.10
2023-05-01T23:24:48.818Z,19.80
2023-05-01T23:27:16.568Z,19.50
2023-05-01T23:29:56.928Z,21.50
2023-05-01T23:32:28.830Z,24.80
2023-05-01T23:35:03.160Z,25.20
2023-05-01T23:37:30.640Z,21.20
2023-05-01T23:40:00.116Z,22.30
2023-05-01T23:42:28.393Z,23.50
2023-05-01T23:44:56.318Z,20.30
2023-05-01T23:47:23.697Z,21.60
2023-05-01T23:49:50.915Z,20.90
2023-05-01T23:52:18.261Z,19.10
2023-05-01T23:54:45.246Z,18.70
2023-05-01T23:57:12.396Z,15.20
2023-05-01T23:59:39.459Z,18.40
